Current Metar reports for airports in our Region

Nearby METAR Reports

Metar reports are mainly used by pilots for information on what is happening at their destination during their pre-flight weather briefings and by meteorologists to assist in short term forecasts. A raw Metar is one of the most universal ways to communicate weather information in the world and are usually transmitted by airports, but some come from permanent sanctioned weather observatories.

Listed below are Metars from airports within 100 miles of our station here in Smethport Pa. The first one of course is the Bradford Regional Airport, then the Olean NY airport and so on. Each airport has it's own table to display it's data and at the bottom of the table is 'Raw' Metar for each airport. Most pilots and weather forecasters can look at the raw data and tell you what is up, but we use a script that handles all of the details for us.

KBFD - Bradford, Pennsylvania, USA
Distance from station: NW 7mi, 11km
Updated: Wed, 12-Dec-2018 3:53pm EST
Clear
Clear
 Wind from SSE
Wind: SSE 8 mph , 13 km/h
Temperature: 28°F , -2°C
Wind Chill: 20°F , -7°C
Dew Point: 21°F , -6°C
Humidity: 74%
Barometer: 30.01 inHg , 1016.3 hPa
Clouds: Clear
Visibility: 7 miles , 11 km
2018/12/12 20:53 KBFD 122053Z AUTO 15007KT 7SM CLR M02/M06 A3001 RMK AO2 SLP184 T10171056 58003
KOLE - Olean, New York, USA
Distance from station: NNE 37mi, 59km
Updated: Wed, 12-Dec-2018 4:35pm EST
Partly Cloudy
Partly Cloudy
 Wind from SSE
Wind: SSE 7 mph , 11 km/h
Temperature: 28°F , -2°C
Wind Chill: 21°F , -6°C
Dew Point: 23°F , -5°C
Humidity: 80%
Barometer: 30.01 inHg , 1016.3 hPa
Clouds: Partly Cloudy
Visibility: 10 miles , 16 km
Cloud details: Partly Cloudy 1700 ft
2018/12/12 21:35 KOLE 122135Z AUTO 15006KT 10SM SCT017 M02/M05 A3001 RMK AO2
 
KELZ - Wellsville, New York, USA
Distance from station: NE 40mi, 64km
Updated: Wed, 12-Dec-2018 4:38pm EST
Partly Cloudy
Partly Cloudy
 Wind from SSE
Wind: SSE 7 mph , 11 km/h
Temperature: 28°F , -2°C
Wind Chill: 21°F , -6°C
Dew Point: 23°F , -5°C
Humidity: 80%
Barometer: 30.04 inHg , 1017.3 hPa
Clouds: Partly Cloudy
Visibility: 10 miles , 16 km
Cloud details: Partly Cloudy 1800 ft
2018/12/12 21:38 KELZ 122138Z AUTO 16006KT 10SM SCT018 M02/M05 A3004 RMK AO2 T10221050
KDUJ - Du Bois, Pennsylvania, USA
Distance from station: SSW 42mi, 68km
Updated: Wed, 12-Dec-2018 3:53pm EST
Clear
Clear
 Wind from ESE
Wind: ESE 6 mph , 9 km/h
Temperature: 32°F , 0°C
Wind Chill: 26°F , -3°C
Dew Point: 21°F , -6°C
Humidity: 64%
Barometer: 30.02 inHg , 1016.6 hPa
Clouds: Clear
Visibility: 7 miles , 11 km
2018/12/12 20:53 KDUJ 122053Z AUTO 12005KT 7SM CLR 00/M06 A3002 RMK AO2 SLP185 T00001056 56004
 
KJHW - Jamestown, New York, USA
Distance from station: NW 46mi, 75km
Updated: Wed, 12-Dec-2018 3:56pm EST
Few Clouds
Few Clouds
 Wind from SSE
Wind: SSE 9 mph , 15 km/h
Temperature: 30°F , -1°C
Wind Chill: 22°F , -6°C
Dew Point: 25°F , -4°C
Humidity: 80%
Barometer: 30.01 inHg , 1016.3 hPa
Clouds: Few Clouds
Visibility: 9 miles , 14 km
Cloud details: Few Clouds 12000 ft
2018/12/12 20:56 KJHW 122056Z AUTO 16008KT 9SM FEW120 M01/M04 A3001 RMK AO2 SLP187 T10111039 55003 FZRANO
KFIG - Clearfield, Pennsylvania, USA
Distance from station: S 47mi, 75km
Updated: Wed, 12-Dec-2018 3:54pm EST
Clear
Clear
 Wind from E
Wind: E 5 mph , 7 km/h
Temperature: 34°F , 1°C
Wind Chill: 29°F , -2°C
Dew Point: 25°F , -4°C
Humidity: 70%
Barometer: 30.06 inHg , 1017.9 hPa
Clouds: Clear
Visibility: 10 miles , 16 km
2018/12/12 20:54 KFIG 122054Z AUTO 10004KT 10SM CLR 01/M04 A3006 RMK AO2 SLP195 T00111044 56007
 
KDKK - Dunkirk, New York, USA
Distance from station: NW 66mi, 106km
Updated: Wed, 12-Dec-2018 3:53pm EST
Clear
Clear
 Wind from SE
Wind: SE 12 mph , 19 km/h
Temperature: 36°F , 2°C
Wind Chill: 28°F , -2°C
Dew Point: 25°F , -4°C
Humidity: 65%
Barometer: 30.05 inHg , 1017.6 hPa
Clouds: Clear
Visibility: 10 miles , 16 km
2018/12/12 20:53 KDKK 122053Z AUTO 13010KT 10SM CLR 02/M04 A3005 RMK AO2 SLP184 T00171039 55003
KUNV - State College, Pennsylvania, USA
Distance from station: SSE 71mi, 114km
Updated: Wed, 12-Dec-2018 3:53pm EST
Clear
Clear
 Wind from calm
Wind: Calm
Temperature: 34°F , 1°C
Dew Point: 23°F , -5°C
Humidity: 65%
Barometer: 30.09 inHg , 1019 hPa
Clouds: Clear
Visibility: 10 miles , 16 km
2018/12/12 20:53 KUNV 122053Z 00000KT 10SM SKC 01/M05 A3009
 
KFKL - Franklin, Pennsylvania, USA
Distance from station: WSW 72mi, 116km
Updated: Wed, 12-Dec-2018 3:56pm EST
Few Clouds
Few Clouds
 Wind from SE
Wind: SE 12 mph , 19 km/h
Temperature: 34°F , 1°C
Wind Chill: 25°F , -4°C
Dew Point: 25°F , -4°C
Humidity: 70%
Barometer: 29.98 inHg , 1015.2 hPa
Clouds: Few Clouds
Visibility: 10 miles , 16 km
Cloud details: Few Clouds 12000 ft
2018/12/12 20:56 KFKL 122056Z AUTO 13010KT 10SM FEW120 01/M04 A2998 RMK AO2 SLP171 T00061044 58018 FZRANO
KDSV - Dansville, New York, USA
Distance from station: NE 73mi, 117km
Updated: Wed, 12-Dec-2018 3:54pm EST
Mostly Cloudy
Mostly Cloudy
 Wind from ESE
Wind: ESE 7 mph , 11 km/h
Temperature: 36°F , 2°C
Wind Chill: 30°F , -1°C
Dew Point: 25°F , -4°C
Humidity: 65%
Barometer: 30.09 inHg , 1019 hPa
Clouds: Mostly Cloudy
Visibility: 10 miles , 16 km
Cloud details: Mostly Cloudy 3200 ft
2018/12/12 20:54 KDSV 122054Z AUTO 12006KT 10SM BKN032 02/M04 A3009 RMK AO2 SLP204 T00171039 56008
 
KIDI - Indiana/Stewart, Pennsylvania, USA
Distance from station: SSW 81mi, 130km
Updated: Wed, 12-Dec-2018 4:35pm EST
Overcast
Overcast
 Wind from ESE
Wind: ESE 7 mph , 11 km/h
Temperature: 37°F , 3°C
Wind Chill: 32°F , 0°C
Dew Point: 25°F , -4°C
Humidity: 60%
Barometer: 30.05 inHg , 1017.6 hPa
Clouds: Overcast
Visibility: 10 miles , 16 km
Cloud details: Overcast 10000 ft
2018/12/12 21:35 KIDI 122135Z AUTO 12006KT 10SM OVC100 03/M04 A3005 RMK A01
KBUF - Buffalo/Cheektow, New York, USA
Distance from station: N 84mi, 136km
Updated: Wed, 12-Dec-2018 4:03pm EST
Overcast
Overcast
 Wind from E
Wind: E 9 mph , 15 km/h
Temperature: 34°F , 1°C
Wind Chill: 27°F , -3°C
Dew Point: 27°F , -3°C
Humidity: 75%
Barometer: 30.07 inHg , 1018.3 hPa
Clouds: Overcast
Visibility: 10 miles , 16 km
Cloud details: Overcast 3000 ft
2018/12/12 21:03 KBUF 122103Z 08008KT 10SM OVC030 01/M03 A3007 RMK AO2 T00061033
 
KGKJ - Meadville, Pennsylvania, USA
Distance from station: W 86mi, 138km
Updated: Wed, 12-Dec-2018 3:53pm EST
Mostly Cloudy
Mostly Cloudy
 Wind from varies
Wind: varies 6 mph , 9 km/h
Temperature: 34°F , 1°C
Wind Chill: 29°F , -2°C
Dew Point: 27°F , -3°C
Humidity: 75%
Barometer: 29.96 inHg , 1014.6 hPa
Clouds: Mostly Cloudy
Visibility: 10 miles , 16 km
Cloud details: Mostly Cloudy 11000 ft
2018/12/12 20:53 KGKJ 122053Z AUTO VRB05KT 10SM BKN110 01/M03 A2996 RMK AO2 SLP158 T00111033 58019
KERI - Erie, Pennsylvania, USA
Distance from station: WNW 87mi, 140km
Updated: Wed, 12-Dec-2018 3:51pm EST
Few Clouds
Few Clouds
 Wind from SE
Wind: SE 9 mph , 15 km/h, Gust: 17 mph , 28 km/h
Temperature: 37°F , 3°C
Wind Chill: 30°F , -1°C
Dew Point: 27°F , -3°C
Humidity: 65%
Barometer: 29.98 inHg , 1015.2 hPa
Clouds: Few Clouds
Visibility: 7 miles , 11 km
Cloud details: Few Clouds 12000 ft
2018/12/12 20:51 KERI 122051Z 14008G15KT 7SM FEW120 03/M03 A2998 RMK AO2 SLP158 T00281033 58016
 
KELM - Elmira, New York, USA
Distance from station: ENE 90mi, 145km
Updated: Wed, 12-Dec-2018 3:53pm EST
Overcast
Overcast
 Wind from ENE
Wind: ENE 5 mph , 7 km/h
Temperature: 34°F , 1°C
Wind Chill: 29°F , -2°C
Dew Point: 27°F , -3°C
Humidity: 75%
Barometer: 30.11 inHg , 1019.6 hPa
Clouds: Overcast
Visibility: 7 miles , 11 km
Cloud details: Overcast 3200 ft
2018/12/12 20:53 KELM 122053Z 06004KT 7SM OVC032 01/M03 A3011 RMK AO2 SLP206 T00111033 53004
KIPT - Williamsport, Pennsylvania, USA
Distance from station: ESE 91mi, 146km
Updated: Wed, 12-Dec-2018 3:54pm EST
Clear
Clear
 Wind from NNW
Wind: NNW 3 mph , 6 km/h
Temperature: 36°F , 2°C
Dew Point: 21°F , -6°C
Humidity: 56%
Barometer: 30.13 inHg , 1020.3 hPa
Clouds: Clear
Visibility: 10 miles , 16 km
2018/12/12 20:54 KIPT 122054Z 33003KT 10SM CLR 02/M06 A3013 RMK AO2 SLP206 T00221056 55004
 
KBTP - Butler Co., Pennsylvania, USA
Distance from station: SW 98mi, 157km
Updated: Wed, 12-Dec-2018 3:56pm EST
Mostly Cloudy
Mostly Cloudy
 Wind from SE
Wind: SE 8 mph , 13 km/h
Temperature: 37°F , 3°C
Wind Chill: 31°F , -1°C
Dew Point: 25°F , -4°C
Humidity: 60%
Barometer: 30.00 inHg , 1015.9 hPa
Clouds: Mostly Cloudy
Visibility: 10 miles , 16 km
Cloud details: Mostly Cloudy 9000 ft
Mostly Cloudy 12000 ft
2018/12/12 20:56 KBTP 122056Z AUTO 14007KT 10SM BKN090 BKN120 03/M04 A3000 RMK AO2 SLP176 6//// T00281044 58019
KAOO - Altoona, Pennsylvania, USA
Distance from station: S 99mi, 159km
Updated: Wed, 12-Dec-2018 3:53pm EST
Clear
Clear
 Wind from S
Wind: S 7 mph , 11 km/h
Temperature: 36°F , 2°C
Wind Chill: 30°F , -1°C
Dew Point: 25°F , -4°C
Humidity: 65%
Barometer: 30.07 inHg , 1018.3 hPa
Clouds: Clear
Visibility: 10 miles , 16 km
2018/12/12 20:53 KAOO 122053Z AUTO 17006KT 10SM CLR 02/M04 A3007 RMK AO2 SLP198 T00221044 55005
 
KPIT - Pittsburg, Pennsylvania, USA
Distance from station: SSW 126mi, 203km
Updated: Wed, 12-Dec-2018 3:51pm EST
Overcast
Overcast
 Wind from SSE
Wind: SSE 12 mph , 19 km/h
Temperature: 37°F , 3°C
Wind Chill: 29°F , -2°C
Dew Point: 23°F , -5°C
Humidity: 56%
Barometer: 30.00 inHg , 1015.9 hPa
Clouds: Overcast
Visibility: 10 miles , 16 km
Cloud details: Partly Cloudy 8500 ft
Mostly Cloudy 13000 ft
Overcast 22000 ft
2018/12/12 20:51 KPIT 122051Z 16010KT 10SM SCT085 BKN130 OVC220 03/M05 A3000 RMK AO2 SLP176 T00331050 58016
KCLE - Cleveland, Ohio, USA
Distance from station: WSW 160mi, 258km
Updated: Wed, 12-Dec-2018 3:51pm EST
Overcast
Overcast
 Wind from S
Wind: S 12 mph , 19 km/h
Temperature: 39°F , 4°C
Wind Chill: 32°F , 0°C
Dew Point: 27°F , -3°C
Humidity: 61%
Barometer: 29.93 inHg , 1013.5 hPa
Clouds: Overcast
Visibility: 10 miles , 16 km
Cloud details: Overcast 7000 ft
2018/12/12 20:51 KCLE 122051Z 17010KT 10SM OVC070 04/M03 A2993 RMK AO2 SLP142 T00441028 56018